<?xml version="1.0" encoding="UTF-8" standalone="no" ?>
<gpx xmlns="http://www.topografix.com/GPX/1/1" xmlns:xsi="http://www.w3.org/2001/XMLSchema-instance" xsi:schemaLocation="http://www.topografix.com/GPX/1/1 http://www.topografix.com/GPX/1/1/gpx.xsd" version="1.1" creator="VisuGPX - https://www.visugpx.com">
  <metadata>
    <name>TPS 2017: la trace!</name>
    <desc><![CDATA[La traversée des pyrénées à ski édition 2017. Trace étape par étape (jour par jour).]]></desc>
  </metadata>
  <trk>
    <name><![CDATA[R7-01]]></name>
    <trkseg>
      <trkpt lat="42.79276" lon="-0.14132">
        <ele>2153</ele>
        <time>2017-03-20T07:01:36Z</time>
      </trkpt>
      <trkpt lat="42.79278" lon="-0.14132">
        <ele>2153</ele>
        <time>2017-03-20T07:01:57Z</time>
      </trkpt>
      <trkpt lat="42.79276" lon="-0.14136">
        <ele>2154</ele>
        <time>2017-03-20T07:02:13Z</time>
      </trkpt>
      <trkpt lat="42.79274" lon="-0.14134">
        <ele>2154.5</ele>
        <time>2017-03-20T07:02:30Z</time>
      </trkpt>
      <trkpt lat="42.79275" lon="-0.14133">
        <ele>2154.9</ele>
        <time>2017-03-20T07:02:52Z</time>
      </trkpt>
      <trkpt lat="42.79278" lon="-0.14137">
        <ele>2154</ele>
        <time>2017-03-20T07:03:07Z</time>
      </trkpt>
      <trkpt lat="42.79263" lon="-0.14163">
        <ele>2148.2</ele>
        <time>2017-03-20T07:03:43Z</time>
      </trkpt>
      <trkpt lat="42.79262" lon="-0.14162">
        <ele>2147.2</ele>
        <time>2017-03-20T07:04:04Z</time>
      </trkpt>
      <trkpt lat="42.79263" lon="-0.14163">
        <ele>2147.7</ele>
        <time>2017-03-20T07:04:22Z</time>
      </trkpt>
      <trkpt lat="42.79263" lon="-0.14163">
        <ele>2148.2</ele>
        <time>2017-03-20T07:04:43Z</time>
      </trkpt>
      <trkpt lat="42.7926" lon="-0.14162">
        <ele>2148.2</ele>
        <time>2017-03-20T07:05:08Z</time>
      </trkpt>
      <trkpt lat="42.79261" lon="-0.14162">
        <ele>2148.2</ele>
        <time>2017-03-20T07:05:22Z</time>
      </trkpt>
      <trkpt lat="42.791" lon="-0.14391">
        <ele>2153</ele>
        <time>2017-03-20T07:09:58Z</time>
      </trkpt>
      <trkpt lat="42.79097" lon="-0.14392">
        <ele>2152.5</ele>
        <time>2017-03-20T07:10:14Z</time>
      </trkpt>
      <trkpt lat="42.79098" lon="-0.14393">
        <ele>2153</ele>
        <time>2017-03-20T07:10:37Z</time>
      </trkpt>
      <trkpt lat="42.79094" lon="-0.14392">
        <ele>2153.5</ele>
        <time>2017-03-20T07:10:51Z</time>
      </trkpt>
      <trkpt lat="42.7909" lon="-0.14399">
        <ele>2155.4</ele>
        <time>2017-03-20T07:11:04Z</time>
      </trkpt>
      <trkpt lat="42.79092" lon="-0.14398">
        <ele>2154.5</ele>
        <time>2017-03-20T07:11:28Z</time>
      </trkpt>
      <trkpt lat="42.79028" lon="-0.14449">
        <ele>2172.2</ele>
        <time>2017-03-20T07:14:05Z</time>
      </trkpt>
      <trkpt lat="42.79047" lon="-0.14474">
        <ele>2179.9</ele>
        <time>2017-03-20T07:15:26Z</time>
      </trkpt>
      <trkpt lat="42.79051" lon="-0.14474">
        <ele>2179.5</ele>
        <time>2017-03-20T07:15:43Z</time>
      </trkpt>
      <trkpt lat="42.79059" lon="-0.14492">
        <ele>2185.2</ele>
        <time>2017-03-20T07:16:38Z</time>
      </trkpt>
      <trkpt lat="42.79066" lon="-0.14492">
        <ele>2185.7</ele>
        <time>2017-03-20T07:16:54Z</time>
      </trkpt>
      <trkpt lat="42.79061" lon="-0.14492">
        <ele>2185.7</ele>
        <time>2017-03-20T07:17:11Z</time>
      </trkpt>
      <trkpt lat="42.79055" lon="-0.14499">
        <ele>2188.6</ele>
        <time>2017-03-20T07:17:27Z</time>
      </trkpt>
      <trkpt lat="42.79006" lon="-0.14515">
        <ele>2199.2</ele>
        <time>2017-03-20T07:19:32Z</time>
      </trkpt>
      <trkpt lat="42.79008" lon="-0.14535">
        <ele>2203</ele>
        <time>2017-03-20T07:20:15Z</time>
      </trkpt>
      <trkpt lat="42.78966" lon="-0.14563">
        <ele>2215.5</ele>
        <time>2017-03-20T07:22:12Z</time>
      </trkpt>
      <trkpt lat="42.78965" lon="-0.14566">
        <ele>2216.9</ele>
        <time>2017-03-20T07:22:25Z</time>
      </trkpt>
      <trkpt lat="42.78951" lon="-0.14583">
        <ele>2221.7</ele>
        <time>2017-03-20T07:23:07Z</time>
      </trkpt>
      <trkpt lat="42.78952" lon="-0.14589">
        <ele>2222.7</ele>
        <time>2017-03-20T07:23:19Z</time>
      </trkpt>
      <trkpt lat="42.78956" lon="-0.14589">
        <ele>2223.7</ele>
        <time>2017-03-20T07:23:35Z</time>
      </trkpt>
      <trkpt lat="42.78989" lon="-0.14631">
        <ele>2236.2</ele>
        <time>2017-03-20T07:25:38Z</time>
      </trkpt>
      <trkpt lat="42.78949" lon="-0.14644">
        <ele>2247.2</ele>
        <time>2017-03-20T07:27:45Z</time>
      </trkpt>
      <trkpt lat="42.78991" lon="-0.14684">
        <ele>2260.2</ele>
        <time>2017-03-20T07:30:14Z</time>
      </trkpt>
      <trkpt lat="42.79006" lon="-0.14688">
        <ele>2265.5</ele>
        <time>2017-03-20T07:31:10Z</time>
      </trkpt>
      <trkpt lat="42.79006" lon="-0.14692">
        <ele>2266</ele>
        <time>2017-03-20T07:31:25Z</time>
      </trkpt>
      <trkpt lat="42.7898" lon="-0.14714">
        <ele>2274.6</ele>
        <time>2017-03-20T07:33:10Z</time>
      </trkpt>
      <trkpt lat="42.79013" lon="-0.14737">
        <ele>2283.8</ele>
        <time>2017-03-20T07:35:15Z</time>
      </trkpt>
      <trkpt lat="42.78997" lon="-0.14753">
        <ele>2286.6</ele>
        <time>2017-03-20T07:36:12Z</time>
      </trkpt>
      <trkpt lat="42.78991" lon="-0.14752">
        <ele>2289.5</ele>
        <time>2017-03-20T07:36:39Z</time>
      </trkpt>
      <trkpt lat="42.78999" lon="-0.14762">
        <ele>2291.4</ele>
        <time>2017-03-20T07:37:14Z</time>
      </trkpt>
      <trkpt lat="42.79009" lon="-0.14763">
        <ele>2294.8</ele>
        <time>2017-03-20T07:37:43Z</time>
      </trkpt>
      <trkpt lat="42.7899" lon="-0.14781">
        <ele>2300.1</ele>
        <time>2017-03-20T07:38:55Z</time>
      </trkpt>
      <trkpt lat="42.78994" lon="-0.14786">
        <ele>2302</ele>
        <time>2017-03-20T07:39:13Z</time>
      </trkpt>
      <trkpt lat="42.78998" lon="-0.14787">
        <ele>2303</ele>
        <time>2017-03-20T07:39:28Z</time>
      </trkpt>
      <trkpt lat="42.79" lon="-0.14791">
        <ele>2303</ele>
        <time>2017-03-20T07:39:42Z</time>
      </trkpt>
      <trkpt lat="42.7898" lon="-0.14801">
        <ele>2309.2</ele>
        <time>2017-03-20T07:40:39Z</time>
      </trkpt>
      <trkpt lat="42.78997" lon="-0.14816">
        <ele>2314.5</ele>
        <time>2017-03-20T07:41:32Z</time>
      </trkpt>
      <trkpt lat="42.79002" lon="-0.14814">
        <ele>2315.5</ele>
        <time>2017-03-20T07:41:47Z</time>
      </trkpt>
      <trkpt lat="42.79004" lon="-0.14815">
        <ele>2316</ele>
        <time>2017-03-20T07:42:03Z</time>
      </trkpt>
      <trkpt lat="42.78976" lon="-0.14851">
        <ele>2327.5</ele>
        <time>2017-03-20T07:43:42Z</time>
      </trkpt>
      <trkpt lat="42.78983" lon="-0.14867">
        <ele>2332.8</ele>
        <time>2017-03-20T07:44:33Z</time>
      </trkpt>
      <trkpt lat="42.7898" lon="-0.14872">
        <ele>2333.7</ele>
        <time>2017-03-20T07:45:04Z</time>
      </trkpt>
      <trkpt lat="42.78979" lon="-0.14872">
        <ele>2331.3</ele>
        <time>2017-03-20T07:45:13Z</time>
      </trkpt>
      <trkpt lat="42.78979" lon="-0.14872">
        <ele>2333.7</ele>
        <time>2017-03-20T07:45:15Z</time>
      </trkpt>
      <trkpt lat="42.78979" lon="-0.14876">
        <ele>2333.7</ele>
        <time>2017-03-20T07:45:45Z</time>
      </trkpt>
      <trkpt lat="42.78978" lon="-0.14874">
        <ele>2332.8</ele>
        <time>2017-03-20T07:46:20Z</time>
      </trkpt>
      <trkpt lat="42.78979" lon="-0.14878">
        <ele>2332.8</ele>
        <time>2017-03-20T07:47:04Z</time>
      </trkpt>
      <trkpt lat="42.78979" lon="-0.14875">
        <ele>2332.8</ele>
        <time>2017-03-20T07:47:31Z</time>
      </trkpt>
      <trkpt lat="42.78977" lon="-0.14874">
        <ele>2332.8</ele>
        <time>2017-03-20T07:47:57Z</time>
      </trkpt>
      <trkpt lat="42.78979" lon="-0.14874">
        <ele>2332.8</ele>
        <time>2017-03-20T07:48:33Z</time>
      </trkpt>
      <trkpt lat="42.78976" lon="-0.14874">
        <ele>2332.3</ele>
        <time>2017-03-20T07:49:01Z</time>
      </trkpt>
      <trkpt lat="42.78973" lon="-0.14879">
        <ele>2332.3</ele>
        <time>2017-03-20T07:49:37Z</time>
      </trkpt>
      <trkpt lat="42.78972" lon="-0.14878">
        <ele>2332.8</ele>
        <time>2017-03-20T07:50:10Z</time>
      </trkpt>
      <trkpt lat="42.78977" lon="-0.14879">
        <ele>2332.8</ele>
        <time>2017-03-20T07:50:39Z</time>
      </trkpt>
      <trkpt lat="42.78974" lon="-0.14876">
        <ele>2334.2</ele>
        <time>2017-03-20T07:51:14Z</time>
      </trkpt>
      <trkpt lat="42.78976" lon="-0.14875">
        <ele>2333.3</ele>
        <time>2017-03-20T07:51:35Z</time>
      </trkpt>
      <trkpt lat="42.78978" lon="-0.14876">
        <ele>2333.3</ele>
        <time>2017-03-20T07:51:54Z</time>
      </trkpt>
      <trkpt lat="42.78978" lon="-0.14878">
        <ele>2333.7</ele>
        <time>2017-03-20T07:52:34Z</time>
      </trkpt>
      <trkpt lat="42.78979" lon="-0.14876">
        <ele>2334.2</ele>
        <time>2017-03-20T07:53:10Z</time>
      </trkpt>
      <trkpt lat="42.78976" lon="-0.14879">
        <ele>2334.2</ele>
        <time>2017-03-20T07:53:37Z</time>
      </trkpt>
      <trkpt lat="42.78977" lon="-0.14876">
        <ele>2334.2</ele>
        <time>2017-03-20T07:54:11Z</time>
      </trkpt>
      <trkpt lat="42.78975" lon="-0.14876">
        <ele>2334.2</ele>
        <time>2017-03-20T07:54:39Z</time>
      </trkpt>
      <trkpt lat="42.78976" lon="-0.14875">
        <ele>2334.7</ele>
        <time>2017-03-20T07:55:05Z</time>
      </trkpt>
      <trkpt lat="42.78973" lon="-0.14874">
        <ele>2334.7</ele>
        <time>2017-03-20T07:55:39Z</time>
      </trkpt>
      <trkpt lat="42.78975" lon="-0.14874">
        <ele>2333.3</ele>
        <time>2017-03-20T07:56:01Z</time>
      </trkpt>
      <trkpt lat="42.78976" lon="-0.14875">
        <ele>2334.2</ele>
        <time>2017-03-20T07:56:03Z</time>
      </trkpt>
      <trkpt lat="42.78979" lon="-0.14876">
        <ele>2336.6</ele>
        <time>2017-03-20T07:56:30Z</time>
      </trkpt>
      <trkpt lat="42.78975" lon="-0.14881">
        <ele>2335.2</ele>
        <time>2017-03-20T07:57:02Z</time>
      </trkpt>
      <trkpt lat="42.78979" lon="-0.14876">
        <ele>2336.1</ele>
        <time>2017-03-20T07:57:31Z</time>
      </trkpt>
      <trkpt lat="42.78976" lon="-0.14875">
        <ele>2336.6</ele>
        <time>2017-03-20T07:57:51Z</time>
      </trkpt>
      <trkpt lat="42.78974" lon="-0.14877">
        <ele>2336.1</ele>
        <time>2017-03-20T07:58:21Z</time>
      </trkpt>
      <trkpt lat="42.78978" lon="-0.14876">
        <ele>2336.6</ele>
        <time>2017-03-20T07:58:53Z</time>
      </trkpt>
      <trkpt lat="42.78924" lon="-0.14874">
        <ele>2350.6</ele>
        <time>2017-03-20T08:01:43Z</time>
      </trkpt>
      <trkpt lat="42.78918" lon="-0.14907">
        <ele>2357.3</ele>
        <time>2017-03-20T08:02:52Z</time>
      </trkpt>
      <trkpt lat="42.7894" lon="-0.14934">
        <ele>2365</ele>
        <time>2017-03-20T08:04:13Z</time>
      </trkpt>
      <trkpt lat="42.78824" lon="-0.14997">
        <ele>2393.8</ele>
        <time>2017-03-20T08:09:04Z</time>
      </trkpt>
      <trkpt lat="42.78825" lon="-0.14996">
        <ele>2392.9</ele>
        <time>2017-03-20T08:09:14Z</time>
      </trkpt>
      <trkpt lat="42.78823" lon="-0.14995">
        <ele>2393.3</ele>
        <time>2017-03-20T08:09:34Z</time>
      </trkpt>
      <trkpt lat="42.78826" lon="-0.14993">
        <ele>2394.3</ele>
        <time>2017-03-20T08:09:49Z</time>
      </trkpt>
      <trkpt lat="42.78794" lon="-0.15019">
        <ele>2401.5</ele>
        <time>2017-03-20T08:11:01Z</time>
      </trkpt>
      <trkpt lat="42.78803" lon="-0.1504">
        <ele>2406.8</ele>
        <time>2017-03-20T08:11:45Z</time>
      </trkpt>
      <trkpt lat="42.78751" lon="-0.15074">
        <ele>2423.6</ele>
        <time>2017-03-20T08:14:16Z</time>
      </trkpt>
      <trkpt lat="42.7875" lon="-0.1509">
        <ele>2425.5</ele>
        <time>2017-03-20T08:14:46Z</time>
      </trkpt>
      <trkpt lat="42.78702" lon="-0.15143">
        <ele>2439.5</ele>
        <time>2017-03-20T08:17:28Z</time>
      </trkpt>
      <trkpt lat="42.78638" lon="-0.15171">
        <ele>2462.1</ele>
        <time>2017-03-20T08:21:12Z</time>
      </trkpt>
      <trkpt lat="42.78635" lon="-0.15177">
        <ele>2463</ele>
        <time>2017-03-20T08:21:27Z</time>
      </trkpt>
      <trkpt lat="42.78656" lon="-0.15213">
        <ele>2475.5</ele>
        <time>2017-03-20T08:23:34Z</time>
      </trkpt>
      <trkpt lat="42.78659" lon="-0.15215">
        <ele>2475.5</ele>
        <time>2017-03-20T08:23:49Z</time>
      </trkpt>
      <trkpt lat="42.78654" lon="-0.15219">
        <ele>2476.5</ele>
        <time>2017-03-20T08:24:05Z</time>
      </trkpt>
      <trkpt lat="42.78636" lon="-0.15211">
        <ele>2481.8</ele>
        <time>2017-03-20T08:25:17Z</time>
      </trkpt>
      <trkpt lat="42.78633" lon="-0.15219">
        <ele>2482.7</ele>
        <time>2017-03-20T08:25:31Z</time>
      </trkpt>
      <trkpt lat="42.78649" lon="-0.15247">
        <ele>2492.8</ele>
        <time>2017-03-20T08:27:02Z</time>
      </trkpt>
      <trkpt lat="42.78649" lon="-0.15248">
        <ele>2493.8</ele>
        <time>2017-03-20T08:27:20Z</time>
      </trkpt>
      <trkpt lat="42.78631" lon="-0.15251">
        <ele>2500.5</ele>
        <time>2017-03-20T08:28:22Z</time>
      </trkpt>
      <trkpt lat="42.7862" lon="-0.15261">
        <ele>2505.3</ele>
        <time>2017-03-20T08:29:01Z</time>
      </trkpt>
      <trkpt lat="42.78617" lon="-0.15272">
        <ele>2508.7</ele>
        <time>2017-03-20T08:29:31Z</time>
      </trkpt>
      <trkpt lat="42.78609" lon="-0.15268">
        <ele>2512.1</ele>
        <time>2017-03-20T08:30:02Z</time>
      </trkpt>
      <trkpt lat="42.78589" lon="-0.15277">
        <ele>2516.4</ele>
        <time>2017-03-20T08:30:50Z</time>
      </trkpt>
      <trkpt lat="42.78586" lon="-0.15281">
        <ele>2516.4</ele>
        <time>2017-03-20T08:31:07Z</time>
      </trkpt>
      <trkpt lat="42.7856" lon="-0.15263">
        <ele>2520.2</ele>
        <time>2017-03-20T08:31:50Z</time>
      </trkpt>
      <trkpt lat="42.78538" lon="-0.15206">
        <ele>2520.7</ele>
        <time>2017-03-20T08:32:41Z</time>
      </trkpt>
      <trkpt lat="42.78542" lon="-0.15202">
        <ele>2524.6</ele>
        <time>2017-03-20T08:33:06Z</time>
      </trkpt>
      <trkpt lat="42.78542" lon="-0.15201">
        <ele>2520.2</ele>
        <time>2017-03-20T08:33:08Z</time>
      </trkpt>
      <trkpt lat="42.78543" lon="-0.15206">
        <ele>2520.7</ele>
        <time>2017-03-20T08:33:55Z</time>
      </trkpt>
      <trkpt lat="42.78547" lon="-0.1521">
        <ele>2521.2</ele>
        <time>2017-03-20T08:34:21Z</time>
      </trkpt>
      <trkpt lat="42.78546" lon="-0.15211">
        <ele>2520.7</ele>
        <time>2017-03-20T08:34:44Z</time>
      </trkpt>
      <trkpt lat="42.78549" lon="-0.1521">
        <ele>2520.2</ele>
        <time>2017-03-20T08:35:17Z</time>
      </trkpt>
      <trkpt lat="42.78551" lon="-0.15211">
        <ele>2520.7</ele>
        <time>2017-03-20T08:35:39Z</time>
      </trkpt>
      <trkpt lat="42.78549" lon="-0.15205">
        <ele>2520.7</ele>
        <time>2017-03-20T08:36:41Z</time>
      </trkpt>
      <trkpt lat="42.78549" lon="-0.15215">
        <ele>2520.7</ele>
        <time>2017-03-20T08:37:11Z</time>
      </trkpt>
      <trkpt lat="42.78548" lon="-0.15212">
        <ele>2521.7</ele>
        <time>2017-03-20T08:37:36Z</time>
      </trkpt>
      <trkpt lat="42.78551" lon="-0.15211">
        <ele>2520.7</ele>
        <time>2017-03-20T08:38:08Z</time>
      </trkpt>
      <trkpt lat="42.7855" lon="-0.1521">
        <ele>2521.2</ele>
        <time>2017-03-20T08:38:39Z</time>
      </trkpt>
      <trkpt lat="42.78553" lon="-0.15222">
        <ele>2521.7</ele>
        <time>2017-03-20T08:39:04Z</time>
      </trkpt>
      <trkpt lat="42.78553" lon="-0.15217">
        <ele>2521.2</ele>
        <time>2017-03-20T08:39:36Z</time>
      </trkpt>
      <trkpt lat="42.78548" lon="-0.15214">
        <ele>2521.7</ele>
        <time>2017-03-20T08:40:01Z</time>
      </trkpt>
      <trkpt lat="42.78554" lon="-0.15215">
        <ele>2521.2</ele>
        <time>2017-03-20T08:40:33Z</time>
      </trkpt>
      <trkpt lat="42.78548" lon="-0.15209">
        <ele>2521.2</ele>
        <time>2017-03-20T08:41:35Z</time>
      </trkpt>
      <trkpt lat="42.78549" lon="-0.15204">
        <ele>2521.2</ele>
        <time>2017-03-20T08:42:03Z</time>
      </trkpt>
      <trkpt lat="42.7855" lon="-0.15219">
        <ele>2521.2</ele>
        <time>2017-03-20T08:42:26Z</time>
      </trkpt>
      <trkpt lat="42.78547" lon="-0.15214">
        <ele>2521.7</ele>
        <time>2017-03-20T08:43:26Z</time>
      </trkpt>
      <trkpt lat="42.78547" lon="-0.1522">
        <ele>2522.2</ele>
        <time>2017-03-20T08:43:56Z</time>
      </trkpt>
      <trkpt lat="42.78555" lon="-0.15219">
        <ele>2522.2</ele>
        <time>2017-03-20T08:44:23Z</time>
      </trkpt>
      <trkpt lat="42.78553" lon="-0.15221">
        <ele>2521.7</ele>
        <time>2017-03-20T08:44:48Z</time>
      </trkpt>
      <trkpt lat="42.78552" lon="-0.15221">
        <ele>2522.2</ele>
        <time>2017-03-20T08:45:16Z</time>
      </trkpt>
      <trkpt lat="42.78554" lon="-0.15219">
        <ele>2522.2</ele>
        <time>2017-03-20T08:45:49Z</time>
      </trkpt>
      <trkpt lat="42.78553" lon="-0.15222">
        <ele>2522.6</ele>
        <time>2017-03-20T08:46:16Z</time>
      </trkpt>
      <trkpt lat="42.78553" lon="-0.15221">
        <ele>2521.7</ele>
        <time>2017-03-20T08:46:43Z</time>
      </trkpt>
      <trkpt lat="42.78555" lon="-0.15222">
        <ele>2522.6</ele>
        <time>2017-03-20T08:47:07Z</time>
      </trkpt>
      <trkpt lat="42.78553" lon="-0.15227">
        <ele>2523.1</ele>
        <time>2017-03-20T08:47:45Z</time>
      </trkpt>
      <trkpt lat="42.78555" lon="-0.15229">
        <ele>2522.6</ele>
        <time>2017-03-20T08:48:24Z</time>
      </trkpt>
      <trkpt lat="42.78552" lon="-0.15228">
        <ele>2522.6</ele>
        <time>2017-03-20T08:48:53Z</time>
      </trkpt>
      <trkpt lat="42.78553" lon="-0.15228">
        <ele>2515.4</ele>
        <time>2017-03-20T08:49:05Z</time>
      </trkpt>
      <trkpt lat="42.78552" lon="-0.15228">
        <ele>2521.2</ele>
        <time>2017-03-20T08:49:06Z</time>
      </trkpt>
      <trkpt lat="42.78556" lon="-0.15228">
        <ele>2523.1</ele>
        <time>2017-03-20T08:49:47Z</time>
      </trkpt>
      <trkpt lat="42.78557" lon="-0.15227">
        <ele>2523.1</ele>
        <time>2017-03-20T08:50:05Z</time>
      </trkpt>
      <trkpt lat="42.7852" lon="-0.15394">
        <ele>2549.6</ele>
        <time>2017-03-20T08:54:15Z</time>
      </trkpt>
      <trkpt lat="42.78509" lon="-0.15388">
        <ele>2552.4</ele>
        <time>2017-03-20T08:54:42Z</time>
      </trkpt>
      <trkpt lat="42.78513" lon="-0.15408">
        <ele>2556.3</ele>
        <time>2017-03-20T08:55:13Z</time>
      </trkpt>
      <trkpt lat="42.78511" lon="-0.1541">
        <ele>2556.8</ele>
        <time>2017-03-20T08:55:24Z</time>
      </trkpt>
      <trkpt lat="42.78505" lon="-0.15404">
        <ele>2559.7</ele>
        <time>2017-03-20T08:55:40Z</time>
      </trkpt>
      <trkpt lat="42.78504" lon="-0.15393">
        <ele>2562.5</ele>
        <time>2017-03-20T08:56:08Z</time>
      </trkpt>
      <trkpt lat="42.78496" lon="-0.15421">
        <ele>2565.9</ele>
        <time>2017-03-20T08:56:37Z</time>
      </trkpt>
      <trkpt lat="42.78511" lon="-0.1545">
        <ele>2575.5</ele>
        <time>2017-03-20T08:58:04Z</time>
      </trkpt>
      <trkpt lat="42.785" lon="-0.15456">
        <ele>2578.9</ele>
        <time>2017-03-20T08:58:30Z</time>
      </trkpt>
      <trkpt lat="42.78481" lon="-0.15454">
        <ele>2583.7</ele>
        <time>2017-03-20T08:59:13Z</time>
      </trkpt>
      <trkpt lat="42.78477" lon="-0.15458">
        <ele>2584.6</ele>
        <time>2017-03-20T08:59:27Z</time>
      </trkpt>
      <trkpt lat="42.78493" lon="-0.15484">
        <ele>2592.8</ele>
        <time>2017-03-20T09:00:44Z</time>
      </trkpt>
      <trkpt lat="42.78468" lon="-0.15482">
        <ele>2602.4</ele>
        <time>2017-03-20T09:02:16Z</time>
      </trkpt>
      <trkpt lat="42.78447" lon="-0.15551">
        <ele>2616.9</ele>
        <time>2017-03-20T09:04:31Z</time>
      </trkpt>
      <trkpt lat="42.78448" lon="-0.15553">
        <ele>2616.4</ele>
        <time>2017-03-20T09:04:50Z</time>
      </trkpt>
      <trkpt lat="42.78447" lon="-0.15554">
        <ele>2616.9</ele>
        <time>2017-03-20T09:05:05Z</time>
      </trkpt>
      <trkpt lat="42.78447" lon="-0.15552">
        <ele>2615.4</ele>
        <time>2017-03-20T09:05:23Z</time>
      </trkpt>
      <trkpt lat="42.78447" lon="-0.15553">
        <ele>2610.1</ele>
        <time>2017-03-20T09:05:50Z</time>
      </trkpt>
      <trkpt lat="42.78447" lon="-0.15553">
        <ele>2611.6</ele>
        <time>2017-03-20T09:05:55Z</time>
      </trkpt>
      <trkpt lat="42.78447" lon="-0.15553">
        <ele>2615.9</ele>
        <time>2017-03-20T09:05:56Z</time>
      </trkpt>
      <trkpt lat="42.78448" lon="-0.15553">
        <ele>2619.3</ele>
        <time>2017-03-20T09:06:21Z</time>
      </trkpt>
      <trkpt lat="42.78447" lon="-0.15555">
        <ele>2615.9</ele>
        <time>2017-03-20T09:06:57Z</time>
      </trkpt>
      <trkpt lat="42.7845" lon="-0.15553">
        <ele>2615.4</ele>
        <time>2017-03-20T09:07:23Z</time>
      </trkpt>
      <trkpt lat="42.7845" lon="-0.15555">
        <ele>2615.4</ele>
        <time>2017-03-20T09:07:58Z</time>
      </trkpt>
      <trkpt lat="42.78448" lon="-0.15551">
        <ele>2615.4</ele>
        <time>2017-03-20T09:08:32Z</time>
      </trkpt>
      <trkpt lat="42.7845" lon="-0.1555">
        <ele>2614.9</ele>
        <time>2017-03-20T09:09:00Z</time>
      </trkpt>
      <trkpt lat="42.78449" lon="-0.15552">
        <ele>2615.4</ele>
        <time>2017-03-20T09:09:27Z</time>
      </trkpt>
      <trkpt lat="42.78446" lon="-0.15548">
        <ele>2614.9</ele>
        <time>2017-03-20T09:09:57Z</time>
      </trkpt>
      <trkpt lat="42.78448" lon="-0.1555">
        <ele>2614.9</ele>
        <time>2017-03-20T09:10:24Z</time>
      </trkpt>
      <trkpt lat="42.78445" lon="-0.15549">
        <ele>2615.4</ele>
        <time>2017-03-20T09:10:55Z</time>
      </trkpt>
      <trkpt lat="42.78447" lon="-0.15552">
        <ele>2610.6</ele>
        <time>2017-03-20T09:11:39Z</time>
      </trkpt>
      <trkpt lat="42.78448" lon="-0.15552">
        <ele>2611.6</ele>
        <time>2017-03-20T09:11:44Z</time>
      </trkpt>
      <trkpt lat="42.78448" lon="-0.15552">
        <ele>2615.9</ele>
        <time>2017-03-20T09:11:45Z</time>
      </trkpt>
      <trkpt lat="42.7845" lon="-0.15553">
        <ele>2615.4</ele>
        <time>2017-03-20T09:12:22Z</time>
      </trkpt>
      <trkpt lat="42.7845" lon="-0.15552">
        <ele>2615.9</ele>
        <time>2017-03-20T09:13:00Z</time>
      </trkpt>
      <trkpt lat="42.78449" lon="-0.15551">
        <ele>2615.4</ele>
        <time>2017-03-20T09:13:46Z</time>
      </trkpt>
      <trkpt lat="42.78452" lon="-0.15551">
        <ele>2615.9</ele>
        <time>2017-03-20T09:14:16Z</time>
      </trkpt>
      <trkpt lat="42.78451" lon="-0.1555">
        <ele>2615.9</ele>
        <time>2017-03-20T09:14:59Z</time>
      </trkpt>
      <trkpt lat="42.78449" lon="-0.15552">
        <ele>2617.8</ele>
        <time>2017-03-20T09:15:26Z</time>
      </trkpt>
      <trkpt lat="42.78449" lon="-0.15551">
        <ele>2616.9</ele>
        <time>2017-03-20T09:15:52Z</time>
      </trkpt>
      <trkpt lat="42.78447" lon="-0.15557">
        <ele>2617.3</ele>
        <time>2017-03-20T09:16:50Z</time>
      </trkpt>
      <trkpt lat="42.78446" lon="-0.15554">
        <ele>2616.9</ele>
        <time>2017-03-20T09:17:07Z</time>
      </trkpt>
      <trkpt lat="42.7844" lon="-0.15608">
        <ele>2609.6</ele>
        <time>2017-03-20T09:18:09Z</time>
      </trkpt>
      <trkpt lat="42.7842" lon="-0.15615">
        <ele>2604.8</ele>
        <time>2017-03-20T09:18:12Z</time>
      </trkpt>
      <trkpt lat="42.78377" lon="-0.15685">
        <ele>2595.2</ele>
        <time>2017-03-20T09:18:27Z</time>
      </trkpt>
      <trkpt lat="42.78434" lon="-0.15713">
        <ele>2572.1</ele>
        <time>2017-03-20T09:18:41Z</time>
      </trkpt>
      <trkpt lat="42.7844" lon="-0.15713">
        <ele>2570.7</ele>
        <time>2017-03-20T09:18:42Z</time>
      </trkpt>
      <trkpt lat="42.78451" lon="-0.15744">
        <ele>2566.4</ele>
        <time>2017-03-20T09:19:26Z</time>
      </trkpt>
      <trkpt lat="42.78454" lon="-0.15917">
        <ele>2518.3</ele>
        <time>2017-03-20T09:19:59Z</time>
      </trkpt>
      <trkpt lat="42.78453" lon="-0.15917">
        <ele>2517.4</ele>
        <time>2017-03-20T09:20:01Z</time>
      </trkpt>
      <trkpt lat="42.78456" lon="-0.15917">
        <ele>2517.4</ele>
        <time>2017-03-20T09:20:29Z</time>
      </trkpt>
      <trkpt lat="42.78456" lon="-0.15921">
        <ele>2517.4</ele>
        <time>2017-03-20T09:20:59Z</time>
      </trkpt>
      <trkpt lat="42.78464" lon="-0.15933">
        <ele>2512.5</ele>
        <time>2017-03-20T09:21:03Z</time>
      </trkpt>
      <trkpt lat="42.7847" lon="-0.16031">
        <ele>2472.2</ele>
        <time>2017-03-20T09:21:43Z</time>
      </trkpt>
      <trkpt lat="42.78464" lon="-0.16043">
        <ele>2467.4</ele>
        <time>2017-03-20T09:21:46Z</time>
      </trkpt>
      <trkpt lat="42.78462" lon="-0.16042">
        <ele>2466.9</ele>
        <time>2017-03-20T09:21:48Z</time>
      </trkpt>
      <trkpt lat="42.78472" lon="-0.16047">
        <ele>2463</ele>
        <time>2017-03-20T09:21:52Z</time>
      </trkpt>
      <trkpt lat="42.7848" lon="-0.1607">
        <ele>2455.8</ele>
        <time>2017-03-20T09:21:57Z</time>
      </trkpt>
      <trkpt lat="42.78477" lon="-0.16083">
        <ele>2450.5</ele>
        <time>2017-03-20T09:22:00Z</time>
      </trkpt>
      <trkpt lat="42.7849" lon="-0.16091">
        <ele>2445.7</ele>
        <time>2017-03-20T09:22:11Z</time>
      </trkpt>
      <trkpt lat="42.78487" lon="-0.16089">
        <ele>2446.2</ele>
        <time>2017-03-20T09:22:46Z</time>
      </trkpt>
      <trkpt lat="42.78501" lon="-0.16108">
        <ele>2437.6</ele>
        <time>2017-03-20T09:22:56Z</time>
      </trkpt>
      <trkpt lat="42.78499" lon="-0.16114">
        <ele>2435.2</ele>
        <time>2017-03-20T09:22:57Z</time>
      </trkpt>
      <trkpt lat="42.78682" lon="-0.16386">
        <ele>2348.2</ele>
        <time>2017-03-20T09:23:43Z</time>
      </trkpt>
      <trkpt lat="42.78656" lon="-0.16457">
        <ele>2345.3</ele>
        <time>2017-03-20T09:24:02Z</time>
      </trkpt>
      <trkpt lat="42.78598" lon="-0.16496">
        <ele>2342.4</ele>
        <time>2017-03-20T09:24:23Z</time>
      </trkpt>
      <trkpt lat="42.78557" lon="-0.16685">
        <ele>2323.6</ele>
        <time>2017-03-20T09:25:36Z</time>
      </trkpt>
      <trkpt lat="42.78561" lon="-0.16686">
        <ele>2324.6</ele>
        <time>2017-03-20T09:25:47Z</time>
      </trkpt>
      <trkpt lat="42.78562" lon="-0.16685">
        <ele>2324.6</ele>
        <time>2017-03-20T09:26:00Z</time>
      </trkpt>
      <trkpt lat="42.78561" lon="-0.16686">
        <ele>2324.6</ele>
        <time>2017-03-20T09:26:20Z</time>
      </trkpt>
      <trkpt lat="42.78562" lon="-0.16688">
        <ele>2323.6</ele>
        <time>2017-03-20T09:27:59Z</time>
      </trkpt>
      <trkpt lat="42.78561" lon="-0.16687">
        <ele>2324.1</ele>
        <time>2017-03-20T09:28:46Z</time>
      </trkpt>
      <trkpt lat="42.78562" lon="-0.16687">
        <ele>2326.1</ele>
        <time>2017-03-20T09:29:22Z</time>
      </trkpt>
      <trkpt lat="42.78562" lon="-0.16685">
        <ele>2318.4</ele>
        <time>2017-03-20T09:29:32Z</time>
      </trkpt>
      <trkpt lat="42.78562" lon="-0.16684">
        <ele>2323.6</ele>
        <time>2017-03-20T09:29:34Z</time>
      </trkpt>
      <trkpt lat="42.78564" lon="-0.16685">
        <ele>2323.6</ele>
        <time>2017-03-20T09:30:19Z</time>
      </trkpt>
      <trkpt lat="42.78563" lon="-0.16687">
        <ele>2323.2</ele>
        <time>2017-03-20T09:30:58Z</time>
      </trkpt>
      <trkpt lat="42.78562" lon="-0.16684">
        <ele>2322.2</ele>
        <time>2017-03-20T09:31:46Z</time>
      </trkpt>
      <trkpt lat="42.78561" lon="-0.16687">
        <ele>2321.7</ele>
        <time>2017-03-20T09:32:31Z</time>
      </trkpt>
      <trkpt lat="42.78561" lon="-0.16687">
        <ele>2321.2</ele>
        <time>2017-03-20T09:33:12Z</time>
      </trkpt>
      <trkpt lat="42.78563" lon="-0.1669">
        <ele>2317.9</ele>
        <time>2017-03-20T09:34:46Z</time>
      </trkpt>
      <trkpt lat="42.78563" lon="-0.16688">
        <ele>2322.2</ele>
        <time>2017-03-20T09:34:52Z</time>
      </trkpt>
      <trkpt lat="42.78563" lon="-0.16688">
        <ele>2318.8</ele>
        <time>2017-03-20T09:35:01Z</time>
      </trkpt>
      <trkpt lat="42.78563" lon="-0.16688">
        <ele>2322.7</ele>
        <time>2017-03-20T09:35:02Z</time>
      </trkpt>
      <trkpt lat="42.78562" lon="-0.16688">
        <ele>2321.7</ele>
        <time>2017-03-20T09:35:33Z</time>
      </trkpt>
      <trkpt lat="42.78561" lon="-0.16683">
        <ele>2322.7</ele>
        <time>2017-03-20T09:35:50Z</time>
      </trkpt>
      <trkpt lat="42.78561" lon="-0.16689">
        <ele>2321.7</ele>
        <time>2017-03-20T09:37:00Z</time>
      </trkpt>
      <trkpt lat="42.78561" lon="-0.16689">
        <ele>2322.2</ele>
        <time>2017-03-20T09:37:20Z</time>
      </trkpt>
      <trkpt lat="42.78517" lon="-0.17062">
        <ele>2382.8</ele>
        <time>2017-03-20T09:47:54Z</time>
      </trkpt>
      <trkpt lat="42.78588" lon="-0.17084">
        <ele>2402.5</ele>
        <time>2017-03-20T09:51:21Z</time>
      </trkpt>
      <trkpt lat="42.78596" lon="-0.17079">
        <ele>2404.9</ele>
        <time>2017-03-20T09:51:51Z</time>
      </trkpt>
      <trkpt lat="42.786" lon="-0.1708">
        <ele>2406.8</ele>
        <time>2017-03-20T09:52:03Z</time>
      </trkpt>
      <trkpt lat="42.78596" lon="-0.17111">
        <ele>2412.6</ele>
        <time>2017-03-20T09:53:17Z</time>
      </trkpt>
      <trkpt lat="42.78627" lon="-0.17108">
        <ele>2422.2</ele>
        <time>2017-03-20T09:54:58Z</time>
      </trkpt>
      <trkpt lat="42.78624" lon="-0.17127">
        <ele>2428</ele>
        <time>2017-03-20T09:55:51Z</time>
      </trkpt>
      <trkpt lat="42.78649" lon="-0.17122">
        <ele>2434.7</ele>
        <time>2017-03-20T09:57:03Z</time>
      </trkpt>
      <trkpt lat="42.78652" lon="-0.17117">
        <ele>2435.6</ele>
        <time>2017-03-20T09:57:16Z</time>
      </trkpt>
      <trkpt lat="42.78729" lon="-0.17201">
        <ele>2466.9</ele>
        <time>2017-03-20T10:02:08Z</time>
      </trkpt>
      <trkpt lat="42.7873" lon="-0.172">
        <ele>2468.3</ele>
        <time>2017-03-20T10:02:30Z</time>
      </trkpt>
      <trkpt lat="42.78734" lon="-0.172">
        <ele>2469.3</ele>
        <time>2017-03-20T10:02:43Z</time>
      </trkpt>
      <trkpt lat="42.78746" lon="-0.1718">
        <ele>2476</ele>
        <time>2017-03-20T10:03:54Z</time>
      </trkpt>
      <trkpt lat="42.78758" lon="-0.17204">
        <ele>2484.2</ele>
        <time>2017-03-20T10:05:02Z</time>
      </trkpt>
      <trkpt lat="42.78761" lon="-0.17203">
        <ele>2484.2</ele>
        <time>2017-03-20T10:05:18Z</time>
      </trkpt>
      <trkpt lat="42.78762" lon="-0.17207">
        <ele>2485.2</ele>
        <time>2017-03-20T10:05:38Z</time>
      </trkpt>
      <trkpt lat="42.78774" lon="-0.17194">
        <ele>2492.4</ele>
        <time>2017-03-20T10:06:48Z</time>
      </trkpt>
      <trkpt lat="42.78791" lon="-0.17228">
        <ele>2502</ele>
        <time>2017-03-20T10:08:22Z</time>
      </trkpt>
      <trkpt lat="42.78807" lon="-0.17231">
        <ele>2507.7</ele>
        <time>2017-03-20T10:09:16Z</time>
      </trkpt>
      <trkpt lat="42.78827" lon="-0.17284">
        <ele>2522.6</ele>
        <time>2017-03-20T10:11:39Z</time>
      </trkpt>
      <trkpt lat="42.78872" lon="-0.17287">
        <ele>2530.8</ele>
        <time>2017-03-20T10:13:33Z</time>
      </trkpt>
      <trkpt lat="42.78872" lon="-0.17289">
        <ele>2530.3</ele>
        <time>2017-03-20T10:13:54Z</time>
      </trkpt>
      <trkpt lat="42.78871" lon="-0.17289">
        <ele>2530.8</ele>
        <time>2017-03-20T10:14:10Z</time>
      </trkpt>
      <trkpt lat="42.78874" lon="-0.17289">
        <ele>2530.8</ele>
        <time>2017-03-20T10:14:33Z</time>
      </trkpt>
      <trkpt lat="42.78877" lon="-0.17294">
        <ele>2530.8</ele>
        <time>2017-03-20T10:14:43Z</time>
      </trkpt>
      <trkpt lat="42.78877" lon="-0.1729">
        <ele>2530.3</ele>
        <time>2017-03-20T10:15:00Z</time>
      </trkpt>
      <trkpt lat="42.78877" lon="-0.17295">
        <ele>2528.9</ele>
        <time>2017-03-20T10:15:45Z</time>
      </trkpt>
      <trkpt lat="42.78873" lon="-0.17289">
        <ele>2529.4</ele>
        <time>2017-03-20T10:16:30Z</time>
      </trkpt>
      <trkpt lat="42.78872" lon="-0.1729">
        <ele>2523.1</ele>
        <time>2017-03-20T10:16:52Z</time>
      </trkpt>
      <trkpt lat="42.78871" lon="-0.1729">
        <ele>2534.2</ele>
        <time>2017-03-20T10:16:53Z</time>
      </trkpt>
      <trkpt lat="42.78872" lon="-0.1729">
        <ele>2531.8</ele>
        <time>2017-03-20T10:16:54Z</time>
      </trkpt>
      <trkpt lat="42.78871" lon="-0.17288">
        <ele>2529.4</ele>
        <time>2017-03-20T10:16:59Z</time>
      </trkpt>
      <trkpt lat="42.78875" lon="-0.17288">
        <ele>2530.3</ele>
        <time>2017-03-20T10:17:33Z</time>
      </trkpt>
      <trkpt lat="42.7887" lon="-0.1729">
        <ele>2529.4</ele>
        <time>2017-03-20T10:18:28Z</time>
      </trkpt>
      <trkpt lat="42.78871" lon="-0.17288">
        <ele>2528.4</ele>
        <time>2017-03-20T10:19:06Z</time>
      </trkpt>
      <trkpt lat="42.7887" lon="-0.17289">
        <ele>2528.9</ele>
        <time>2017-03-20T10:19:37Z</time>
      </trkpt>
      <trkpt lat="42.7887" lon="-0.17289">
        <ele>2528.4</ele>
        <time>2017-03-20T10:20:20Z</time>
      </trkpt>
      <trkpt lat="42.78871" lon="-0.17291">
        <ele>2527.9</ele>
        <time>2017-03-20T10:21:01Z</time>
      </trkpt>
      <trkpt lat="42.78868" lon="-0.17287">
        <ele>2527.9</ele>
        <time>2017-03-20T10:21:51Z</time>
      </trkpt>
      <trkpt lat="42.78872" lon="-0.17291">
        <ele>2527.4</ele>
        <time>2017-03-20T10:22:30Z</time>
      </trkpt>
      <trkpt lat="42.78869" lon="-0.17291">
        <ele>2527.4</ele>
        <time>2017-03-20T10:23:16Z</time>
      </trkpt>
      <trkpt lat="42.78871" lon="-0.17287">
        <ele>2527.4</ele>
        <time>2017-03-20T10:23:52Z</time>
      </trkpt>
      <trkpt lat="42.78871" lon="-0.17289">
        <ele>2527</ele>
        <time>2017-03-20T10:24:34Z</time>
      </trkpt>
      <trkpt lat="42.78873" lon="-0.17292">
        <ele>2527.4</ele>
        <time>2017-03-20T10:25:17Z</time>
      </trkpt>
      <trkpt lat="42.78873" lon="-0.17291">
        <ele>2527</ele>
        <time>2017-03-20T10:26:13Z</time>
      </trkpt>
      <trkpt lat="42.78871" lon="-0.17289">
        <ele>2527.4</ele>
        <time>2017-03-20T10:26:56Z</time>
      </trkpt>
      <trkpt lat="42.78874" lon="-0.17291">
        <ele>2527</ele>
        <time>2017-03-20T10:28:28Z</time>
      </trkpt>
      <trkpt lat="42.78872" lon="-0.1729">
        <ele>2527</ele>
        <time>2017-03-20T10:29:04Z</time>
      </trkpt>
      <trkpt lat="42.7887" lon="-0.17287">
        <ele>2526.5</ele>
        <time>2017-03-20T10:29:52Z</time>
      </trkpt>
      <trkpt lat="42.78871" lon="-0.1729">
        <ele>2527</ele>
        <time>2017-03-20T10:30:46Z</time>
      </trkpt>
      <trkpt lat="42.78872" lon="-0.17289">
        <ele>2527</ele>
        <time>2017-03-20T10:31:28Z</time>
      </trkpt>
      <trkpt lat="42.78868" lon="-0.17285">
        <ele>2527</ele>
        <time>2017-03-20T10:32:19Z</time>
      </trkpt>
      <trkpt lat="42.78867" lon="-0.17287">
        <ele>2526</ele>
        <time>2017-03-20T10:34:10Z</time>
      </trkpt>
      <trkpt lat="42.78865" lon="-0.17281">
        <ele>2526.5</ele>
        <time>2017-03-20T10:35:32Z</time>
      </trkpt>
      <trkpt lat="42.78873" lon="-0.17291">
        <ele>2525.5</ele>
        <time>2017-03-20T10:37:11Z</time>
      </trkpt>
      <trkpt lat="42.78873" lon="-0.1729">
        <ele>2526</ele>
        <time>2017-03-20T10:37:46Z</time>
      </trkpt>
      <trkpt lat="42.78872" lon="-0.17291">
        <ele>2526</ele>
        <time>2017-03-20T10:38:19Z</time>
      </trkpt>
      <trkpt lat="42.7887" lon="-0.17285">
        <ele>2526</ele>
        <time>2017-03-20T10:39:09Z</time>
      </trkpt>
      <trkpt lat="42.78873" lon="-0.17292">
        <ele>2527</ele>
        <time>2017-03-20T10:39:53Z</time>
      </trkpt>
      <trkpt lat="42.78872" lon="-0.17292">
        <ele>2527.4</ele>
        <time>2017-03-20T10:40:19Z</time>
      </trkpt>
      <trkpt lat="42.78871" lon="-0.17288">
        <ele>2525</ele>
        <time>2017-03-20T10:40:35Z</time>
      </trkpt>
      <trkpt lat="42.7887" lon="-0.17287">
        <ele>2526</ele>
        <time>2017-03-20T10:41:13Z</time>
      </trkpt>
      <trkpt lat="42.78874" lon="-0.17291">
        <ele>2526.5</ele>
        <time>2017-03-20T10:41:43Z</time>
      </trkpt>
      <trkpt lat="42.78872" lon="-0.17291">
        <ele>2527</ele>
        <time>2017-03-20T10:42:19Z</time>
      </trkpt>
      <trkpt lat="42.78873" lon="-0.17293">
        <ele>2527</ele>
        <time>2017-03-20T10:42:50Z</time>
      </trkpt>
      <trkpt lat="42.78869" lon="-0.17292">
        <ele>2527.9</ele>
        <time>2017-03-20T10:43:59Z</time>
      </trkpt>
      <trkpt lat="42.78865" lon="-0.17286">
        <ele>2527.9</ele>
        <time>2017-03-20T10:45:06Z</time>
      </trkpt>
      <trkpt lat="42.78871" lon="-0.17292">
        <ele>2528.9</ele>
        <time>2017-03-20T10:45:43Z</time>
      </trkpt>
      <trkpt lat="42.78871" lon="-0.17292">
        <ele>2528.9</ele>
        <time>2017-03-20T10:46:16Z</time>
      </trkpt>
      <trkpt lat="42.78862" lon="-0.17284">
        <ele>2528.9</ele>
        <time>2017-03-20T10:46:57Z</time>
      </trkpt>
      <trkpt lat="42.78865" lon="-0.17285">
        <ele>2530.3</ele>
        <time>2017-03-20T10:47:31Z</time>
      </trkpt>
      <trkpt lat="42.78864" lon="-0.17288">
        <ele>2530.3</ele>
        <time>2017-03-20T10:48:12Z</time>
      </trkpt>
      <trkpt lat="42.78866" lon="-0.17292">
        <ele>2531.3</ele>
        <time>2017-03-20T10:48:47Z</time>
      </trkpt>
      <trkpt lat="42.78865" lon="-0.17288">
        <ele>2533.2</ele>
        <time>2017-03-20T10:49:22Z</time>
      </trkpt>
      <trkpt lat="42.78874" lon="-0.17294">
        <ele>2535.1</ele>
        <time>2017-03-20T10:50:33Z</time>
      </trkpt>
      <trkpt lat="42.78871" lon="-0.17288">
        <ele>2535.6</ele>
        <time>2017-03-20T10:51:12Z</time>
      </trkpt>
      <trkpt lat="42.78872" lon="-0.17289">
        <ele>2536.6</ele>
        <time>2017-03-20T10:51:45Z</time>
      </trkpt>
      <trkpt lat="42.7887" lon="-0.17286">
        <ele>2536.1</ele>
        <time>2017-03-20T10:52:14Z</time>
      </trkpt>
      <trkpt lat="42.78874" lon="-0.17289">
        <ele>2537.5</ele>
        <time>2017-03-20T10:52:47Z</time>
      </trkpt>
      <trkpt lat="42.78876" lon="-0.17284">
        <ele>2537.5</ele>
        <time>2017-03-20T10:53:19Z</time>
      </trkpt>
      <trkpt lat="42.78876" lon="-0.17282">
        <ele>2537.5</ele>
        <time>2017-03-20T10:54:00Z</time>
      </trkpt>
      <trkpt lat="42.78869" lon="-0.17283">
        <ele>2538.5</ele>
        <time>2017-03-20T10:55:22Z</time>
      </trkpt>
      <trkpt lat="42.78872" lon="-0.1728">
        <ele>2539.5</ele>
        <time>2017-03-20T10:56:01Z</time>
      </trkpt>
      <trkpt lat="42.78878" lon="-0.17286">
        <ele>2540.9</ele>
        <time>2017-03-20T10:57:05Z</time>
      </trkpt>
      <trkpt lat="42.78875" lon="-0.17286">
        <ele>2540.9</ele>
        <time>2017-03-20T10:57:41Z</time>
      </trkpt>
      <trkpt lat="42.78873" lon="-0.17281">
        <ele>2540.9</ele>
        <time>2017-03-20T10:58:14Z</time>
      </trkpt>
      <trkpt lat="42.78871" lon="-0.17283">
        <ele>2541.4</ele>
        <time>2017-03-20T10:58:27Z</time>
      </trkpt>
      <trkpt lat="42.78868" lon="-0.17283">
        <ele>2539.9</ele>
        <time>2017-03-20T10:58:46Z</time>
      </trkpt>
      <trkpt lat="42.78871" lon="-0.17293">
        <ele>2540.9</ele>
        <time>2017-03-20T10:59:14Z</time>
      </trkpt>
      <trkpt lat="42.78871" lon="-0.17293">
        <ele>2544.8</ele>
        <time>2017-03-20T10:59:16Z</time>
      </trkpt>
      <trkpt lat="42.78872" lon="-0.17293">
        <ele>2536.6</ele>
        <time>2017-03-20T10:59:22Z</time>
      </trkpt>
      <trkpt lat="42.78871" lon="-0.17292">
        <ele>2544.3</ele>
        <time>2017-03-20T10:59:27Z</time>
      </trkpt>
      <trkpt lat="42.78869" lon="-0.17293">
        <ele>2541.9</ele>
        <time>2017-03-20T10:59:32Z</time>
      </trkpt>
      <trkpt lat="42.7887" lon="-0.1729">
        <ele>2541.9</ele>
        <time>2017-03-20T10:59:52Z</time>
      </trkpt>
      <trkpt lat="42.78869" lon="-0.17291">
        <ele>2538.5</ele>
        <time>2017-03-20T10:59:56Z</time>
      </trkpt>
      <trkpt lat="42.78869" lon="-0.17291">
        <ele>2543.8</ele>
        <time>2017-03-20T10:59:57Z</time>
      </trkpt>
      <trkpt lat="42.78869" lon="-0.17292">
        <ele>2540.9</ele>
        <time>2017-03-20T10:59:59Z</time>
      </trkpt>
      <trkpt lat="42.78869" lon="-0.17292">
        <ele>2540.9</ele>
        <time>2017-03-20T11:00:00Z</time>
      </trkpt>
      <trkpt lat="42.78867" lon="-0.17287">
        <ele>2540.9</ele>
        <time>2017-03-20T11:00:16Z</time>
      </trkpt>
      <trkpt lat="42.78866" lon="-0.17289">
        <ele>2540.9</ele>
        <time>2017-03-20T11:00:30Z</time>
      </trkpt>
      <trkpt lat="42.78874" lon="-0.17287">
        <ele>2538</ele>
        <time>2017-03-20T11:00:43Z</time>
      </trkpt>
      <trkpt lat="42.78871" lon="-0.17286">
        <ele>2541.4</ele>
        <time>2017-03-20T11:00:48Z</time>
      </trkpt>
      <trkpt lat="42.78871" lon="-0.17287">
        <ele>2546.2</ele>
        <time>2017-03-20T11:00:55Z</time>
      </trkpt>
      <trkpt lat="42.78871" lon="-0.17287">
        <ele>2541.4</ele>
        <time>2017-03-20T11:00:56Z</time>
      </trkpt>
      <trkpt lat="42.78872" lon="-0.17288">
        <ele>2540.4</ele>
        <time>2017-03-20T11:01:31Z</time>
      </trkpt>
      <trkpt lat="42.78872" lon="-0.17292">
        <ele>2539.9</ele>
        <time>2017-03-20T11:02:11Z</time>
      </trkpt>
      <trkpt lat="42.78868" lon="-0.17285">
        <ele>2539.5</ele>
        <time>2017-03-20T11:03:01Z</time>
      </trkpt>
      <trkpt lat="42.78871" lon="-0.17289">
        <ele>2540.4</ele>
        <time>2017-03-20T11:03:39Z</time>
      </trkpt>
      <trkpt lat="42.78872" lon="-0.17288">
        <ele>2540.4</ele>
        <time>2017-03-20T11:03:56Z</time>
      </trkpt>
      <trkpt lat="42.78873" lon="-0.1729">
        <ele>2539.5</ele>
        <time>2017-03-20T11:04:18Z</time>
      </trkpt>
      <trkpt lat="42.7887" lon="-0.17286">
        <ele>2539.9</ele>
        <time>2017-03-20T11:04:32Z</time>
      </trkpt>
      <trkpt lat="42.78871" lon="-0.17289">
        <ele>2539.5</ele>
        <time>2017-03-20T11:05:03Z</time>
      </trkpt>
      <trkpt lat="42.78869" lon="-0.17286">
        <ele>2539.5</ele>
        <time>2017-03-20T11:05:21Z</time>
      </trkpt>
      <trkpt lat="42.78872" lon="-0.17287">
        <ele>2539.5</ele>
        <time>2017-03-20T11:05:49Z</time>
      </trkpt>
      <trkpt lat="42.78871" lon="-0.17286">
        <ele>2538.5</ele>
        <time>2017-03-20T11:06:11Z</time>
      </trkpt>
      <trkpt lat="42.78876" lon="-0.17289">
        <ele>2539</ele>
        <time>2017-03-20T11:06:28Z</time>
      </trkpt>
      <trkpt lat="42.78878" lon="-0.17288">
        <ele>2539</ele>
        <time>2017-03-20T11:06:47Z</time>
      </trkpt>
      <trkpt lat="42.78877" lon="-0.1729">
        <ele>2538</ele>
        <time>2017-03-20T11:07:03Z</time>
      </trkpt>
      <trkpt lat="42.78876" lon="-0.17289">
        <ele>2539.5</ele>
        <time>2017-03-20T11:07:06Z</time>
      </trkpt>
      <trkpt lat="42.78877" lon="-0.17291">
        <ele>2538</ele>
        <time>2017-03-20T11:07:47Z</time>
      </trkpt>
      <trkpt lat="42.79088" lon="-0.17287">
        <ele>2514</ele>
        <time>2017-03-20T11:08:48Z</time>
      </trkpt>
      <trkpt lat="42.79087" lon="-0.17289">
        <ele>2513.5</ele>
        <time>2017-03-20T11:09:06Z</time>
      </trkpt>
      <trkpt lat="42.79143" lon="-0.17252">
        <ele>2495.2</ele>
        <time>2017-03-20T11:09:41Z</time>
      </trkpt>
      <trkpt lat="42.7915" lon="-0.17252">
        <ele>2490.9</ele>
        <time>2017-03-20T11:09:43Z</time>
      </trkpt>
      <trkpt lat="42.79153" lon="-0.17255">
        <ele>2490.9</ele>
        <time>2017-03-20T11:09:54Z</time>
      </trkpt>
      <trkpt lat="42.79153" lon="-0.17256">
        <ele>2490</ele>
        <time>2017-03-20T11:10:24Z</time>
      </trkpt>
      <trkpt lat="42.79156" lon="-0.17262">
        <ele>2489</ele>
        <time>2017-03-20T11:10:40Z</time>
      </trkpt>
      <trkpt lat="42.79183" lon="-0.17245">
        <ele>2477.5</ele>
        <time>2017-03-20T11:11:15Z</time>
      </trkpt>
      <trkpt lat="42.79186" lon="-0.17255">
        <ele>2475.1</ele>
        <time>2017-03-20T11:11:40Z</time>
      </trkpt>
      <trkpt lat="42.79204" lon="-0.17252">
        <ele>2470.2</ele>
        <time>2017-03-20T11:12:21Z</time>
      </trkpt>
      <trkpt lat="42.79217" lon="-0.17262">
        <ele>2459.2</ele>
        <time>2017-03-20T11:12:26Z</time>
      </trkpt>
      <trkpt lat="42.79233" lon="-0.17216">
        <ele>2453.9</ele>
        <time>2017-03-20T11:12:55Z</time>
      </trkpt>
      <trkpt lat="42.79299" lon="-0.17203">
        <ele>2416.4</ele>
        <time>2017-03-20T11:13:14Z</time>
      </trkpt>
      <trkpt lat="42.79303" lon="-0.17189">
        <ele>2416.4</ele>
        <time>2017-03-20T11:13:56Z</time>
      </trkpt>
      <trkpt lat="42.79342" lon="-0.17261">
        <ele>2394.3</ele>
        <time>2017-03-20T11:14:14Z</time>
      </trkpt>
      <trkpt lat="42.79488" lon="-0.17212">
        <ele>2366.9</ele>
        <time>2017-03-20T11:14:47Z</time>
      </trkpt>
      <trkpt lat="42.79525" lon="-0.17215">
        <ele>2362.1</ele>
        <time>2017-03-20T11:14:53Z</time>
      </trkpt>
      <trkpt lat="42.79702" lon="-0.17381">
        <ele>2324.6</ele>
        <time>2017-03-20T11:15:32Z</time>
      </trkpt>
      <trkpt lat="42.79709" lon="-0.17381">
        <ele>2323.6</ele>
        <time>2017-03-20T11:15:36Z</time>
      </trkpt>
      <trkpt lat="42.79703" lon="-0.17379">
        <ele>2323.2</ele>
        <time>2017-03-20T11:16:22Z</time>
      </trkpt>
      <trkpt lat="42.79668" lon="-0.1743">
        <ele>2314</ele>
        <time>2017-03-20T11:17:06Z</time>
      </trkpt>
      <trkpt lat="42.79668" lon="-0.17475">
        <ele>2308.3</ele>
        <time>2017-03-20T11:17:09Z</time>
      </trkpt>
      <trkpt lat="42.79909" lon="-0.17767">
        <ele>2289</ele>
        <time>2017-03-20T11:18:39Z</time>
      </trkpt>
      <trkpt lat="42.80023" lon="-0.1776">
        <ele>2282.3</ele>
        <time>2017-03-20T11:19:09Z</time>
      </trkpt>
      <trkpt lat="42.80139" lon="-0.17613">
        <ele>2274.6</ele>
        <time>2017-03-20T11:20:31Z</time>
      </trkpt>
      <trkpt lat="42.80186" lon="-0.17614">
        <ele>2272.7</ele>
        <time>2017-03-20T11:20:50Z</time>
      </trkpt>
      <trkpt lat="42.80279" lon="-0.17749">
        <ele>2263.6</ele>
        <time>2017-03-20T11:21:42Z</time>
      </trkpt>
      <trkpt lat="42.80287" lon="-0.17742">
        <ele>2262.1</ele>
        <time>2017-03-20T11:21:52Z</time>
      </trkpt>
      <trkpt lat="42.80284" lon="-0.17742">
        <ele>2261.2</ele>
        <time>2017-03-20T11:22:17Z</time>
      </trkpt>
      <trkpt lat="42.8028" lon="-0.17752">
        <ele>2261.2</ele>
        <time>2017-03-20T11:22:48Z</time>
      </trkpt>
      <trkpt lat="42.80286" lon="-0.1774">
        <ele>2260.2</ele>
        <time>2017-03-20T11:23:52Z</time>
      </trkpt>
      <trkpt lat="42.80287" lon="-0.17741">
        <ele>2260.2</ele>
        <time>2017-03-20T11:24:03Z</time>
      </trkpt>
      <trkpt lat="42.80319" lon="-0.17709">
        <ele>2255.9</ele>
        <time>2017-03-20T11:24:12Z</time>
      </trkpt>
      <trkpt lat="42.80389" lon="-0.17702">
        <ele>2249.6</ele>
        <time>2017-03-20T11:24:22Z</time>
      </trkpt>
      <trkpt lat="42.80454" lon="-0.1774">
        <ele>2243.4</ele>
        <time>2017-03-20T11:24:34Z</time>
      </trkpt>
      <trkpt lat="42.80454" lon="-0.1774">
        <ele>2243.4</ele>
        <time>2017-03-20T11:24:35Z</time>
      </trkpt>
      <trkpt lat="42.80459" lon="-0.17794">
        <ele>2230.9</ele>
        <time>2017-03-20T11:24:46Z</time>
      </trkpt>
      <trkpt lat="42.80467" lon="-0.17802">
        <ele>2227.5</ele>
        <time>2017-03-20T11:24:49Z</time>
      </trkpt>
      <trkpt lat="42.80464" lon="-0.17805">
        <ele>2225.1</ele>
        <time>2017-03-20T11:24:57Z</time>
      </trkpt>
      <trkpt lat="42.80478" lon="-0.17828">
        <ele>2221.7</ele>
        <time>2017-03-20T11:25:03Z</time>
      </trkpt>
      <trkpt lat="42.80472" lon="-0.17847">
        <ele>2216.5</ele>
        <time>2017-03-20T11:25:07Z</time>
      </trkpt>
      <trkpt lat="42.80453" lon="-0.17852">
        <ele>2208.8</ele>
        <time>2017-03-20T11:25:13Z</time>
      </trkpt>
      <trkpt lat="42.80412" lon="-0.17822">
        <ele>2202.5</ele>
        <time>2017-03-20T11:25:25Z</time>
      </trkpt>
      <trkpt lat="42.80409" lon="-0.17822">
        <ele>2202</ele>
        <time>2017-03-20T11:25:26Z</time>
      </trkpt>
      <trkpt lat="42.80409" lon="-0.17835">
        <ele>2197.2</ele>
        <time>2017-03-20T11:25:30Z</time>
      </trkpt>
      <trkpt lat="42.80413" lon="-0.17834">
        <ele>2196.3</ele>
        <time>2017-03-20T11:25:55Z</time>
      </trkpt>
      <trkpt lat="42.80403" lon="-0.17878">
        <ele>2188.1</ele>
        <time>2017-03-20T11:26:58Z</time>
      </trkpt>
      <trkpt lat="42.80367" lon="-0.17897">
        <ele>2181.9</ele>
        <time>2017-03-20T11:27:05Z</time>
      </trkpt>
      <trkpt lat="42.80321" lon="-0.18052">
        <ele>2170.8</ele>
        <time>2017-03-20T11:27:51Z</time>
      </trkpt>
      <trkpt lat="42.80326" lon="-0.18053">
        <ele>2168.9</ele>
        <time>2017-03-20T11:27:54Z</time>
      </trkpt>
      <trkpt lat="42.80328" lon="-0.18046">
        <ele>2167.4</ele>
        <time>2017-03-20T11:28:07Z</time>
      </trkpt>
      <trkpt lat="42.80358" lon="-0.18023">
        <ele>2164.6</ele>
        <time>2017-03-20T11:28:17Z</time>
      </trkpt>
      <trkpt lat="42.80382" lon="-0.18023">
        <ele>2156.9</ele>
        <time>2017-03-20T11:28:24Z</time>
      </trkpt>
      <trkpt lat="42.80331" lon="-0.18105">
        <ele>2139.6</ele>
        <time>2017-03-20T11:28:43Z</time>
      </trkpt>
      <trkpt lat="42.80331" lon="-0.18304">
        <ele>2122.7</ele>
        <time>2017-03-20T11:29:09Z</time>
      </trkpt>
      <trkpt lat="42.80418" lon="-0.18449">
        <ele>2091</ele>
        <time>2017-03-20T11:29:35Z</time>
      </trkpt>
      <trkpt lat="42.80417" lon="-0.18485">
        <ele>2088.1</ele>
        <time>2017-03-20T11:30:19Z</time>
      </trkpt>
      <trkpt lat="42.80416" lon="-0.18483">
        <ele>2088.6</ele>
        <time>2017-03-20T11:30:47Z</time>
      </trkpt>
      <trkpt lat="42.80419" lon="-0.18483">
        <ele>2087.2</ele>
        <time>2017-03-20T11:31:04Z</time>
      </trkpt>
      <trkpt lat="42.80682" lon="-0.18843">
        <ele>2033.8</ele>
        <time>2017-03-20T11:32:04Z</time>
      </trkpt>
      <trkpt lat="42.80717" lon="-0.18843">
        <ele>2033.3</ele>
        <time>2017-03-20T11:32:26Z</time>
      </trkpt>
      <trkpt lat="42.80716" lon="-0.18843">
        <ele>2032.4</ele>
        <time>2017-03-20T11:33:02Z</time>
      </trkpt>
      <trkpt lat="42.80728" lon="-0.18835">
        <ele>2031.4</ele>
        <time>2017-03-20T11:33:20Z</time>
      </trkpt>
      <trkpt lat="42.80742" lon="-0.18846">
        <ele>2029.5</ele>
        <time>2017-03-20T11:33:24Z</time>
      </trkpt>
      <trkpt lat="42.80772" lon="-0.18838">
        <ele>2022.8</ele>
        <time>2017-03-20T11:33:30Z</time>
      </trkpt>
      <trkpt lat="42.81177" lon="-0.19159">
        <ele>1959.3</ele>
        <time>2017-03-20T11:35:39Z</time>
      </trkpt>
      <trkpt lat="42.81196" lon="-0.19145">
        <ele>1954</ele>
        <time>2017-03-20T11:35:44Z</time>
      </trkpt>
      <trkpt lat="42.81189" lon="-0.19131">
        <ele>1949.7</ele>
        <time>2017-03-20T11:35:47Z</time>
      </trkpt>
      <trkpt lat="42.81197" lon="-0.1913">
        <ele>1946.8</ele>
        <time>2017-03-20T11:35:51Z</time>
      </trkpt>
      <trkpt lat="42.81181" lon="-0.19089">
        <ele>1937.7</ele>
        <time>2017-03-20T11:36:04Z</time>
      </trkpt>
      <trkpt lat="42.81183" lon="-0.19087">
        <ele>1938.6</ele>
        <time>2017-03-20T11:36:24Z</time>
      </trkpt>
      <trkpt lat="42.81191" lon="-0.19057">
        <ele>1935.3</ele>
        <time>2017-03-20T11:37:13Z</time>
      </trkpt>
      <trkpt lat="42.8123" lon="-0.19047">
        <ele>1928.5</ele>
        <time>2017-03-20T11:37:24Z</time>
      </trkpt>
      <trkpt lat="42.81275" lon="-0.19095">
        <ele>1921.3</ele>
        <time>2017-03-20T11:37:54Z</time>
      </trkpt>
      <trkpt lat="42.81362" lon="-0.19097">
        <ele>1916.5</ele>
        <time>2017-03-20T11:39:11Z</time>
      </trkpt>
      <trkpt lat="42.81369" lon="-0.19101">
        <ele>1916</ele>
        <time>2017-03-20T11:39:25Z</time>
      </trkpt>
      <trkpt lat="42.81369" lon="-0.19103">
        <ele>1916</ele>
        <time>2017-03-20T11:39:54Z</time>
      </trkpt>
      <trkpt lat="42.81393" lon="-0.19129">
        <ele>1913.2</ele>
        <time>2017-03-20T11:40:08Z</time>
      </trkpt>
      <trkpt lat="42.81391" lon="-0.19128">
        <ele>1912.7</ele>
        <time>2017-03-20T11:40:28Z</time>
      </trkpt>
      <trkpt lat="42.81392" lon="-0.19129">
        <ele>1912.7</ele>
        <time>2017-03-20T11:40:47Z</time>
      </trkpt>
      <trkpt lat="42.81392" lon="-0.19129">
        <ele>1912.7</ele>
        <time>2017-03-20T11:41:02Z</time>
      </trkpt>
      <trkpt lat="42.81436" lon="-0.19154">
        <ele>1905.5</ele>
        <time>2017-03-20T11:42:26Z</time>
      </trkpt>
      <trkpt lat="42.81461" lon="-0.19081">
        <ele>1883.8</ele>
        <time>2017-03-20T11:42:53Z</time>
      </trkpt>
      <trkpt lat="42.81463" lon="-0.19077">
        <ele>1884.3</ele>
        <time>2017-03-20T11:42:54Z</time>
      </trkpt>
      <trkpt lat="42.81467" lon="-0.19078">
        <ele>1880.5</ele>
        <time>2017-03-20T11:42:56Z</time>
      </trkpt>
      <trkpt lat="42.81469" lon="-0.19081">
        <ele>1880</ele>
        <time>2017-03-20T11:42:57Z</time>
      </trkpt>
      <trkpt lat="42.81476" lon="-0.19081">
        <ele>1876.6</ele>
        <time>2017-03-20T11:43:00Z</time>
      </trkpt>
      <trkpt lat="42.81476" lon="-0.19078">
        <ele>1875.7</ele>
        <time>2017-03-20T11:43:02Z</time>
      </trkpt>
      <trkpt lat="42.81477" lon="-0.1908">
        <ele>1874.7</ele>
        <time>2017-03-20T11:43:10Z</time>
      </trkpt>
      <trkpt lat="42.81512" lon="-0.19054">
        <ele>1869.9</ele>
        <time>2017-03-20T11:43:25Z</time>
      </trkpt>
      <trkpt lat="42.81513" lon="-0.19055">
        <ele>1869.9</ele>
        <time>2017-03-20T11:43:53Z</time>
      </trkpt>
      <trkpt lat="42.81549" lon="-0.19039">
        <ele>1864.6</ele>
        <time>2017-03-20T11:44:01Z</time>
      </trkpt>
      <trkpt lat="42.81595" lon="-0.18994">
        <ele>1860.3</ele>
        <time>2017-03-20T11:44:17Z</time>
      </trkpt>
      <trkpt lat="42.81632" lon="-0.1901">
        <ele>1849.7</ele>
        <time>2017-03-20T11:44:36Z</time>
      </trkpt>
      <trkpt lat="42.81805" lon="-0.18937">
        <ele>1837.7</ele>
        <time>2017-03-20T11:45:59Z</time>
      </trkpt>
      <trkpt lat="42.81909" lon="-0.19034">
        <ele>1834.3</ele>
        <time>2017-03-20T11:47:51Z</time>
      </trkpt>
      <trkpt lat="42.81908" lon="-0.19035">
        <ele>1833.9</ele>
        <time>2017-03-20T11:48:04Z</time>
      </trkpt>
      <trkpt lat="42.81908" lon="-0.19035">
        <ele>1833.4</ele>
        <time>2017-03-20T11:48:19Z</time>
      </trkpt>
      <trkpt lat="42.81912" lon="-0.19036">
        <ele>1831.9</ele>
        <time>2017-03-20T11:48:35Z</time>
      </trkpt>
      <trkpt lat="42.81911" lon="-0.19035">
        <ele>1832.9</ele>
        <time>2017-03-20T11:48:54Z</time>
      </trkpt>
      <trkpt lat="42.81924" lon="-0.1905">
        <ele>1833.9</ele>
        <time>2017-03-20T11:49:52Z</time>
      </trkpt>
      <trkpt lat="42.81921" lon="-0.1905">
        <ele>1832.9</ele>
        <time>2017-03-20T11:50:07Z</time>
      </trkpt>
      <trkpt lat="42.81922" lon="-0.19048">
        <ele>1832.9</ele>
        <time>2017-03-20T11:51:05Z</time>
      </trkpt>
      <trkpt lat="42.81918" lon="-0.1905">
        <ele>1831.9</ele>
        <time>2017-03-20T11:52:11Z</time>
      </trkpt>
      <trkpt lat="42.81923" lon="-0.1905">
        <ele>1831.9</ele>
        <time>2017-03-20T11:53:29Z</time>
      </trkpt>
      <trkpt lat="42.81922" lon="-0.19048">
        <ele>1831</ele>
        <time>2017-03-20T11:54:08Z</time>
      </trkpt>
      <trkpt lat="42.81922" lon="-0.19051">
        <ele>1831.5</ele>
        <time>2017-03-20T11:54:50Z</time>
      </trkpt>
      <trkpt lat="42.81922" lon="-0.19048">
        <ele>1831</ele>
        <time>2017-03-20T11:55:32Z</time>
      </trkpt>
      <trkpt lat="42.81918" lon="-0.19046">
        <ele>1830.5</ele>
        <time>2017-03-20T11:56:18Z</time>
      </trkpt>
      <trkpt lat="42.81922" lon="-0.19052">
        <ele>1831</ele>
        <time>2017-03-20T11:56:53Z</time>
      </trkpt>
      <trkpt lat="42.81922" lon="-0.1905">
        <ele>1831.9</ele>
        <time>2017-03-20T11:57:06Z</time>
      </trkpt>
      <trkpt lat="42.8192" lon="-0.19052">
        <ele>1832.4</ele>
        <time>2017-03-20T11:57:31Z</time>
      </trkpt>
      <trkpt lat="42.81925" lon="-0.19052">
        <ele>1831.5</ele>
        <time>2017-03-20T11:57:59Z</time>
      </trkpt>
      <trkpt lat="42.81922" lon="-0.19054">
        <ele>1831.9</ele>
        <time>2017-03-20T11:58:16Z</time>
      </trkpt>
      <trkpt lat="42.81924" lon="-0.19056">
        <ele>1831.9</ele>
        <time>2017-03-20T11:58:34Z</time>
      </trkpt>
      <trkpt lat="42.81922" lon="-0.19385">
        <ele>1856</ele>
        <time>2017-03-20T12:04:20Z</time>
      </trkpt>
      <trkpt lat="42.8193" lon="-0.19383">
        <ele>1857.4</ele>
        <time>2017-03-20T12:04:30Z</time>
      </trkpt>
      <trkpt lat="42.81964" lon="-0.19435">
        <ele>1862.2</ele>
        <time>2017-03-20T12:05:38Z</time>
      </trkpt>
      <trkpt lat="42.81988" lon="-0.1944">
        <ele>1866.1</ele>
        <time>2017-03-20T12:06:20Z</time>
      </trkpt>
      <trkpt lat="42.81993" lon="-0.19425">
        <ele>1868.5</ele>
        <time>2017-03-20T12:06:50Z</time>
      </trkpt>
      <trkpt lat="42.81999" lon="-0.19455">
        <ele>1870.9</ele>
        <time>2017-03-20T12:07:40Z</time>
      </trkpt>
      <trkpt lat="42.82002" lon="-0.19453">
        <ele>1870.9</ele>
        <time>2017-03-20T12:08:04Z</time>
      </trkpt>
      <trkpt lat="42.81997" lon="-0.19452">
        <ele>1870.9</ele>
        <time>2017-03-20T12:08:22Z</time>
      </trkpt>
      <trkpt lat="42.81999" lon="-0.19451">
        <ele>1870.4</ele>
        <time>2017-03-20T12:08:42Z</time>
      </trkpt>
      <trkpt lat="42.81998" lon="-0.19454">
        <ele>1871.3</ele>
        <time>2017-03-20T12:09:09Z</time>
      </trkpt>
      <trkpt lat="42.82003" lon="-0.19457">
        <ele>1871.3</ele>
        <time>2017-03-20T12:09:28Z</time>
      </trkpt>
      <trkpt lat="42.82003" lon="-0.19459">
        <ele>1871.3</ele>
        <time>2017-03-20T12:09:44Z</time>
      </trkpt>
      <trkpt lat="42.82021" lon="-0.1946">
        <ele>1869.9</ele>
        <time>2017-03-20T12:11:19Z</time>
      </trkpt>
      <trkpt lat="42.82012" lon="-0.19463">
        <ele>1870.9</ele>
        <time>2017-03-20T12:12:02Z</time>
      </trkpt>
      <trkpt lat="42.82014" lon="-0.19456">
        <ele>1870.9</ele>
        <time>2017-03-20T12:12:34Z</time>
      </trkpt>
      <trkpt lat="42.82011" lon="-0.19461">
        <ele>1870.4</ele>
        <time>2017-03-20T12:13:33Z</time>
      </trkpt>
      <trkpt lat="42.82003" lon="-0.19464">
        <ele>1870.4</ele>
        <time>2017-03-20T12:14:07Z</time>
      </trkpt>
      <trkpt lat="42.82004" lon="-0.19457">
        <ele>1870.4</ele>
        <time>2017-03-20T12:14:40Z</time>
      </trkpt>
      <trkpt lat="42.82002" lon="-0.19463">
        <ele>1870.4</ele>
        <time>2017-03-20T12:15:14Z</time>
      </trkpt>
      <trkpt lat="42.82004" lon="-0.19465">
        <ele>1870.4</ele>
        <time>2017-03-20T12:15:56Z</time>
      </trkpt>
      <trkpt lat="42.82003" lon="-0.19463">
        <ele>1870.9</ele>
        <time>2017-03-20T12:16:32Z</time>
      </trkpt>
      <trkpt lat="42.82002" lon="-0.19464">
        <ele>1871.3</ele>
        <time>2017-03-20T12:17:09Z</time>
      </trkpt>
      <trkpt lat="42.82002" lon="-0.19462">
        <ele>1870.9</ele>
        <time>2017-03-20T12:17:49Z</time>
      </trkpt>
      <trkpt lat="42.82003" lon="-0.19464">
        <ele>1871.3</ele>
        <time>2017-03-20T12:18:23Z</time>
      </trkpt>
      <trkpt lat="42.82003" lon="-0.19464">
        <ele>1871.3</ele>
        <time>2017-03-20T12:19:01Z</time>
      </trkpt>
      <trkpt lat="42.82004" lon="-0.19466">
        <ele>1872.3</ele>
        <time>2017-03-20T12:19:40Z</time>
      </trkpt>
      <trkpt lat="42.82003" lon="-0.19463">
        <ele>1872.3</ele>
        <time>2017-03-20T12:20:07Z</time>
      </trkpt>
      <trkpt lat="42.82005" lon="-0.19463">
        <ele>1872.3</ele>
        <time>2017-03-20T12:20:36Z</time>
      </trkpt>
      <trkpt lat="42.82002" lon="-0.19459">
        <ele>1872.3</ele>
        <time>2017-03-20T12:21:15Z</time>
      </trkpt>
    </trkseg>
  </trk>
</gpx>